createdAt,value
2018-12-26T00:03:32.685Z,86.77
2018-12-26T00:08:34.746Z,86.93
2018-12-26T00:13:36.915Z,87.23
2018-12-26T00:18:39.329Z,87.44
2018-12-26T00:23:41.458Z,88.27
2018-12-26T00:28:43.546Z,88.50
2018-12-26T00:33:45.567Z,88.73
2018-12-26T00:38:47.609Z,89.08
2018-12-26T00:43:49.624Z,89.07
2018-12-26T00:48:51.688Z,88.15
2018-12-26T00:53:53.721Z,88.73
2018-12-26T00:58:56.076Z,88.64
2018-12-26T01:03:58.169Z,88.43
2018-12-26T01:09:00.169Z,88.38
2018-12-26T01:14:02.838Z,89.07
2018-12-26T01:19:05.052Z,88.60
2018-12-26T01:24:07.071Z,89.21
2018-12-26T01:29:09.305Z,89.56
2018-12-26T01:34:11.337Z,89.50
2018-12-26T01:39:13.914Z,89.54
2018-12-26T01:44:16.227Z,89.96
2018-12-26T01:49:18.232Z,90.28
2018-12-26T01:54:20.624Z,90.70
2018-12-26T01:59:25.447Z,90.21
2018-12-26T02:04:27.501Z,89.82
2018-12-26T02:09:29.537Z,90.53
2018-12-26T02:14:31.990Z,90.91
2018-12-26T02:19:34.031Z,90.68
2018-12-26T02:24:36.316Z,90.56
2018-12-26T02:29:38.366Z,89.98
2018-12-26T02:34:40.362Z,90.03
2018-12-26T02:39:42.419Z,89.57
2018-12-26T02:44:44.489Z,89.54
2018-12-26T02:49:46.541Z,89.68
2018-12-26T02:54:48.697Z,89.91
2018-12-26T02:59:50.777Z,90.15
2018-12-26T03:04:52.929Z,90.77
2018-12-26T03:09:54.936Z,89.88
2018-12-26T03:14:56.963Z,89.55
2018-12-26T03:19:59.024Z,89.33
2018-12-26T03:25:01.243Z,89.49
2018-12-26T03:30:03.789Z,89.27
2018-12-26T03:35:05.869Z,89.07
2018-12-26T03:40:07.977Z,89.09
2018-12-26T03:45:10.010Z,88.95
2018-12-26T03:50:12.233Z,89.18
2018-12-26T03:55:14.273Z,88.82
2018-12-26T04:00:16.309Z,88.57
2018-12-26T04:05:18.670Z,89.00
2018-12-26T04:10:23.558Z,89.76
2018-12-26T04:15:25.695Z,89.71
2018-12-26T04:20:27.709Z,90.36
2018-12-26T04:25:29.779Z,90.33
2018-12-26T04:30:31.839Z,90.04
2018-12-26T04:35:33.802Z,90.47
2018-12-26T04:40:35.829Z,90.25
2018-12-26T04:45:37.875Z,90.98
2018-12-26T04:50:39.897Z,91.53
2018-12-26T04:55:41.882Z,91.04
2018-12-26T05:00:46.239Z,91.29
2018-12-26T05:05:48.489Z,91.56
2018-12-26T05:10:50.756Z,91.80
2018-12-26T05:15:52.762Z,91.79
2018-12-26T05:20:55.173Z,91.82
2018-12-26T05:25:57.139Z,93.08
2018-12-26T05:30:59.178Z,92.53
2018-12-26T05:36:01.226Z,92.52
2018-12-26T05:41:03.429Z,93.45
2018-12-26T05:46:05.492Z,91.14
2018-12-26T05:51:07.569Z,91.25
2018-12-26T05:56:09.613Z,91.73
2018-12-26T06:01:11.723Z,92.08
2018-12-26T06:06:13.703Z,92.58
2018-12-26T06:11:15.772Z,92.53
2018-12-26T06:16:17.878Z,93.67
2018-12-26T06:21:20.119Z,93.86
2018-12-26T06:26:22.208Z,93.56
2018-12-26T06:31:24.226Z,93.05
2018-12-26T06:36:28.487Z,92.44
2018-12-26T06:41:30.950Z,91.54
2018-12-26T06:46:33.203Z,91.22
2018-12-26T06:51:35.268Z,91.18
2018-12-26T06:56:37.307Z,92.07
2018-12-26T07:01:39.357Z,92.13
2018-12-26T07:06:41.472Z,92.20
2018-12-26T07:11:43.587Z,92.46
2018-12-26T07:16:45.686Z,93.00
2018-12-26T07:21:47.994Z,93.27
2018-12-26T07:26:50.035Z,92.94
2018-12-26T07:31:52.085Z,92.10
2018-12-26T07:36:54.050Z,91.39
2018-12-26T07:41:56.085Z,93.31
2018-12-26T07:46:58.124Z,93.44
2018-12-26T07:52:00.154Z,93.44
2018-12-26T07:57:02.225Z,93.96
2018-12-26T08:02:04.447Z,93.43
2018-12-26T08:07:06.488Z,93.92
2018-12-26T08:12:08.508Z,94.20
2018-12-26T08:17:10.462Z,94.65
2018-12-26T08:22:12.488Z,93.64
2018-12-26T08:27:14.918Z,93.99
2018-12-26T08:32:17.136Z,93.37
2018-12-26T08:37:19.453Z,93.33
2018-12-26T08:42:21.516Z,93.30
2018-12-26T08:47:23.547Z,93.54
2018-12-26T08:52:25.553Z,93.31
2018-12-26T08:57:27.551Z,94.39
2018-12-26T09:02:29.858Z,93.21
2018-12-26T09:07:31.843Z,93.59
2018-12-26T09:12:34.106Z,93.39
2018-12-26T09:17:36.163Z,92.54
2018-12-26T09:22:38.191Z,91.33
2018-12-26T09:27:40.285Z,91.63
2018-12-26T09:32:42.882Z,92.45
2018-12-26T09:37:44.950Z,92.46
2018-12-26T09:42:46.995Z,92.17
2018-12-26T09:47:48.989Z,92.25
2018-12-26T09:52:50.995Z,91.95
2018-12-26T09:57:52.981Z,91.96
2018-12-26T10:02:55.023Z,92.87
2018-12-26T10:07:57.067Z,92.94
2018-12-26T10:12:59.201Z,92.93
2018-12-26T10:18:01.206Z,92.75
2018-12-26T10:23:03.673Z,92.23
2018-12-26T10:28:05.698Z,92.53
2018-12-26T10:33:08.468Z,91.18
2018-12-26T10:38:10.447Z,91.04
2018-12-26T10:43:12.443Z,91.15
2018-12-26T10:48:14.466Z,91.10
2018-12-26T10:53:16.569Z,91.69
2018-12-26T10:58:20.670Z,91.91
2018-12-26T11:03:22.691Z,92.43
2018-12-26T11:08:25.028Z,92.43
2018-12-26T11:13:27.056Z,92.04
2018-12-26T11:18:29.415Z,92.29
2018-12-26T11:23:33.582Z,91.36
2018-12-26T11:28:35.551Z,91.19
2018-12-26T11:33:38.021Z,91.72
2018-12-26T11:38:40.811Z,91.26
2018-12-26T11:43:42.838Z,91.61
2018-12-26T11:48:44.942Z,92.10
2018-12-26T11:53:46.958Z,91.22
2018-12-26T11:58:48.969Z,90.37
2018-12-26T12:03:51.145Z,91.36
2018-12-26T12:08:53.152Z,90.39
2018-12-26T12:13:55.132Z,90.03
2018-12-26T12:18:57.133Z,89.94
2018-12-26T12:23:59.134Z,89.47
2018-12-26T12:29:01.127Z,89.92
2018-12-26T12:34:04.959Z,90.45
2018-12-26T12:39:06.996Z,90.51
2018-12-26T12:44:09.090Z,90.61
2018-12-26T12:49:11.131Z,90.10
2018-12-26T12:54:13.148Z,90.61
2018-12-26T12:59:16.063Z,90.81
2018-12-26T13:04:18.079Z,90.73
2018-12-26T13:09:20.095Z,91.63
2018-12-26T13:14:22.122Z,91.20
2018-12-26T13:19:24.168Z,91.03
2018-12-26T13:24:26.187Z,91.08
2018-12-26T13:29:28.412Z,91.14
2018-12-26T13:34:30.399Z,90.98
2018-12-26T13:39:32.405Z,90.70
2018-12-26T13:44:34.507Z,91.05
2018-12-26T13:49:36.522Z,90.62
2018-12-26T13:54:38.537Z,90.81
2018-12-26T13:59:40.611Z,91.05
2018-12-26T14:04:42.974Z,91.09
2018-12-26T14:09:45.048Z,91.20
2018-12-26T14:14:47.174Z,91.14
2018-12-26T14:19:49.680Z,91.32
2018-12-26T14:24:51.612Z,90.72
2018-12-26T14:29:53.650Z,90.58
2018-12-26T14:34:55.909Z,90.83
2018-12-26T14:39:57.956Z,91.26
2018-12-26T14:45:00.017Z,91.96
2018-12-26T14:50:02.209Z,91.80
2018-12-26T14:55:04.286Z,91.66
2018-12-26T15:00:07.174Z,91.67
2018-12-26T15:05:09.742Z,91.56
2018-12-26T15:10:11.736Z,91.57
2018-12-26T15:15:13.776Z,91.36
2018-12-26T15:20:18.807Z,91.70
2018-12-26T15:25:21.271Z,92.03
2018-12-26T15:30:28.517Z,92.08
2018-12-26T15:35:27.183Z,92.35
2018-12-26T15:40:29.372Z,92.41
2018-12-26T15:45:31.360Z,92.36
2018-12-26T15:50:33.402Z,92.66
2018-12-26T15:55:35.435Z,92.07
2018-12-26T16:00:37.898Z,92.64
2018-12-26T16:05:39.948Z,92.11
2018-12-26T16:10:42.002Z,92.10
2018-12-26T16:15:44.041Z,92.07
2018-12-26T16:20:46.135Z,92.13
2018-12-26T16:25:48.135Z,91.99
2018-12-26T16:30:50.165Z,91.76
2018-12-26T16:35:52.201Z,91.94
2018-12-26T16:40:55.037Z,91.99
2018-12-26T16:45:57.118Z,91.75
2018-12-26T16:50:59.139Z,92.18
2018-12-26T16:56:01.511Z,92.07
2018-12-26T17:01:03.660Z,92.66
2018-12-26T17:06:05.789Z,92.81
2018-12-26T17:11:09.653Z,93.04
2018-12-26T17:16:11.703Z,92.72
2018-12-26T17:21:13.736Z,92.71
2018-12-26T17:26:18.282Z,93.02
2018-12-26T17:31:20.269Z,92.93
2018-12-26T17:36:22.798Z,93.32
2018-12-26T17:41:25.183Z,93.14
2018-12-26T17:46:27.209Z,92.94
2018-12-26T17:51:29.231Z,92.80
2018-12-26T17:56:52.461Z,92.82
2018-12-26T18:02:09.640Z,92.67
2018-12-26T18:07:11.805Z,92.61
2018-12-26T18:12:13.824Z,93.11
2018-12-26T18:17:15.806Z,93.02
2018-12-26T18:22:19.726Z,93.24
2018-12-26T18:27:21.762Z,93.63
2018-12-26T18:32:24.029Z,93.04
2018-12-26T18:37:26.032Z,93.37
2018-12-26T18:42:28.067Z,93.62
2018-12-26T18:47:30.115Z,93.47
2018-12-26T18:52:32.160Z,93.59
2018-12-26T18:57:34.192Z,93.61
2018-12-26T19:02:37.216Z,93.55
2018-12-26T19:07:39.659Z,93.77
2018-12-26T19:12:41.805Z,93.77
2018-12-26T19:17:44.044Z,93.92
2018-12-26T19:22:46.047Z,93.61
2018-12-26T19:27:48.459Z,93.72
2018-12-26T19:32:50.745Z,94.18
2018-12-26T19:37:52.779Z,93.94
2018-12-26T19:42:54.826Z,93.54
2018-12-26T19:47:56.813Z,93.49
2018-12-26T19:53:00.116Z,93.51
2018-12-26T19:58:02.152Z,93.56
2018-12-26T20:03:04.154Z,93.69
2018-12-26T20:08:06.170Z,93.30
2018-12-26T20:13:08.207Z,92.84
2018-12-26T20:18:12.145Z,93.05
2018-12-26T20:23:14.242Z,93.70
2018-12-26T20:28:16.288Z,93.56
2018-12-26T20:33:18.533Z,94.12
2018-12-26T20:38:20.581Z,94.14
2018-12-26T20:43:22.948Z,94.43
2018-12-26T20:48:25.176Z,94.37
2018-12-26T20:53:27.570Z,93.83
2018-12-26T20:58:29.597Z,93.76
2018-12-26T21:03:31.634Z,93.82
2018-12-26T21:08:34.972Z,93.64
2018-12-26T21:13:37.144Z,93.90
2018-12-26T21:18:39.472Z,93.88
2018-12-26T21:23:41.556Z,94.03
2018-12-26T21:28:43.601Z,94.14
2018-12-26T21:33:45.668Z,94.47
2018-12-26T21:38:47.652Z,94.13
2018-12-26T21:43:49.655Z,94.12
2018-12-26T21:48:51.718Z,93.72
2018-12-26T21:53:53.983Z,93.57
2018-12-26T21:58:55.954Z,93.24
2018-12-26T22:03:58.104Z,93.57
2018-12-26T22:09:04.381Z,93.69
2018-12-26T22:14:06.829Z,93.69
2018-12-26T22:19:09.042Z,93.50
2018-12-26T22:24:11.132Z,93.86
2018-12-26T22:29:13.173Z,94.20
2018-12-26T22:34:15.222Z,94.37
2018-12-26T22:39:17.304Z,94.11
2018-12-26T22:44:27.578Z,94.28
2018-12-26T22:49:24.782Z,94.55
2018-12-26T22:54:26.754Z,95.18
2018-12-26T22:59:28.809Z,94.93
2018-12-26T23:04:30.983Z,95.32
2018-12-26T23:09:33.043Z,96.04
2018-12-26T23:14:35.036Z,95.58
2018-12-26T23:19:37.559Z,94.88
2018-12-26T23:24:39.582Z,94.85
2018-12-26T23:29:41.848Z,94.83
2018-12-26T23:34:44.138Z,95.00
2018-12-26T23:39:46.172Z,95.12
2018-12-26T23:44:48.199Z,94.93
2018-12-26T23:49:50.223Z,94.82
2018-12-26T23:54:52.265Z,94.90
2018-12-26T23:59:54.260Z,94.87
